Hornblower Esprit — WDH8905 — position and weather

sailwx.info

Track history (hours):
 
Tides and Currents Weather Stations Pressure Air Temp Water Temp Dewpoint Dewpoint Depression Visibility Wind Speed Wind Dir Waves Ship Positions

Hornblower Esprit

Owner: Hornblower Cruises, New York, LLC., New York, NY. More information available from US FCC via Universal Licensing System and Coast Guard Vessel Documentation Center.

Last reported at 2017-Nov-19 03:15 UTC. Time now 2017-Nov-19 06:33 UTC.
Position N 40°44' W 074°01'.

Length 23 m.

MMSI: 367662670.

Date/timePositionNaut miles runAvg speedWind from/ knotsBaromVisibWave heightAir tempDewpointWater temp
2017-Nov-19 03:15N 40°44' W 074°01'0 0.0
2017-Nov-19 03:00N 40°44' W 074°01'1 1.5
2017-Nov-19 02:30N 40°43' W 074°02'2 4.4
2017-Nov-19 02:00N 40°41' W 074°02'1 2.3
2017-Nov-19 01:30N 40°42' W 074°01'2 4.2
2017-Nov-19 01:00N 40°43' W 073°59'2 4.1
2017-Nov-19 00:30N 40°42' W 074°01'2 3.3
2017-Nov-19 00:00N 40°44' W 074°01'0 0.0
2017-Nov-18 23:30N 40°44' W 074°01'0 0.0
2017-Nov-18 23:00N 40°44' W 074°01'0 0.0
2017-Nov-18 22:30N 40°44' W 074°01'0 0.0
2017-Nov-18 22:00N 40°44' W 074°01'0 0.0
2017-Nov-18 21:30N 40°44' W 074°01'0 0.0
2017-Nov-18 21:00N 40°44' W 074°01'0 0.0
2017-Nov-18 20:30N 40°44' W 074°01'0 0.0
2017-Nov-18 20:00N 40°44' W 074°01'2 3.6
2017-Nov-18 19:30N 40°42' W 074°00'0 0.6
2017-Nov-18 19:00N 40°42' W 074°00'0 0.0
2017-Nov-17 20:28N 40°42' W 074°00'1 2.0
2017-Nov-17 20:00N 40°43' W 074°01'1 0.1
2017-Nov-17 02:44N 40°44' W 074°01'0 0.8
2017-Nov-17 02:30N 40°44' W 074°01'2 4.1
2017-Nov-17 02:00N 40°42' W 074°02'0 0.6
2017-Nov-17 01:30N 40°42' W 074°01'3 5.5
2017-Nov-17 01:00N 40°43' W 073°58'3 5.4
2017-Nov-17 00:30N 40°42' W 074°01'2 3.7
2017-Nov-17 00:00N 40°44' W 074°01'0 0.0
2017-Nov-16 19:29N 40°44' W 074°01'0 0.0
2017-Nov-16 16:55N 40°44' W 074°01'2 4.3
2017-Nov-16 16:30N 40°42' W 074°01'1 0.0
2017-Nov-15 02:56N 40°42' W 074°00'0 0.4
2017-Nov-15 02:30N 40°42' W 074°00'2 3.9
2017-Nov-15 02:00N 40°41' W 074°02'3 5.1
2017-Nov-15 01:30N 40°44' W 074°01'3 5.9
2017-Nov-15 01:00N 40°47' W 074°00'2 3.9
2017-Nov-15 00:30N 40°45' W 074°01'3 5.4
2017-Nov-15 00:00N 40°42' W 074°01'0 0.8
2017-Nov-14 23:30N 40°42' W 074°00'0 0.0
2017-Nov-14 23:00N 40°42' W 074°00'0 0.2
2017-Nov-14 22:30N 40°42' W 074°00'2 3.3
2017-Nov-14 22:00N 40°44' W 074°01'0 0.0
2017-Nov-14 16:08N 40°44' W 074°01'0 0.0
2017-Nov-14 16:00N 40°44' W 074°01'2 3.6
2017-Nov-14 15:30N 40°43' W 074°02'0 0.0
2017-Nov-14 15:00N 40°43' W 074°02'0 0.8
2017-Nov-14 14:30N 40°43' W 074°03'0 0.0
2017-Nov-14 14:01N 40°43' W 074°03'0 0.0
2017-Nov-12 11:43N 40°43' W 074°03'0 0.1
2017-Nov-12 11:30N 40°43' W 074°03'1 2.8
2017-Nov-12 11:00N 40°44' W 074°01'1 0.1
2017-Nov-12 03:44N 40°44' W 074°01'0 0.0
2017-Nov-12 03:30N 40°44' W 074°01'0 0.0
2017-Nov-12 03:00N 40°44' W 074°01'2 3.5
2017-Nov-12 02:30N 40°42' W 074°02'1 1.7
2017-Nov-12 02:00N 40°41' W 074°02'2 4.3
2017-Nov-12 01:30N 40°42' W 073°60'2 4.1
2017-Nov-12 01:00N 40°44' W 074°01'1 2.2
2017-Nov-12 00:30N 40°45' W 074°01'1 2.8
2017-Nov-12 00:00N 40°44' W 074°01'0 0.0
2017-Nov-11 23:30N 40°44' W 074°01'0 0.0
2017-Nov-11 23:00N 40°44' W 074°01'0 0.0
2017-Nov-11 22:30N 40°44' W 074°01'0 0.0
2017-Nov-11 22:00N 40°44' W 074°01'0 0.0
2017-Nov-11 21:30N 40°44' W 074°01'0 0.0
2017-Nov-11 21:00N 40°44' W 074°01'0 0.0
2017-Nov-11 20:30N 40°44' W 074°01'0 0.0
2017-Nov-11 20:00N 40°44' W 074°01'0 0.0
2017-Nov-11 19:30N 40°44' W 074°01'0 0.0
2017-Nov-11 19:00N 40°44' W 074°01'0 0.0
2017-Nov-11 03:05N 40°44' W 074°01'0 0.1
2017-Nov-11 03:00N 40°44' W 074°01'2 3.5
2017-Nov-11 02:30N 40°42' W 074°02'1 2.6
2017-Nov-11 02:00N 40°41' W 074°02'3 6.1
2017-Nov-11 01:30N 40°43' W 073°59'1 2.5
2017-Nov-11 01:00N 40°42' W 074°00'3 5.8
2017-Nov-11 00:30N 40°45' W 074°01'1 1.9
2017-Nov-10 23:59N 40°44' W 074°01'0 0.0
2017-Nov-10 23:30N 40°44' W 074°01'0 0.0
2017-Nov-10 23:00N 40°44' W 074°01'0 0.0
2017-Nov-10 22:00N 40°44' W 074°01'0 0.0
2017-Nov-10 21:30N 40°44' W 074°01'0 0.0
2017-Nov-10 02:47N 40°44' W 074°01'1 3.5
2017-Nov-10 02:30N 40°43' W 074°01'2 3.8
2017-Nov-10 02:00N 40°41' W 074°02'3 5.4
2017-Nov-10 01:30N 40°42' W 073°59'1 1.3
2017-Nov-10 01:00N 40°43' W 073°58'2 3.5
2017-Nov-10 00:30N 40°42' W 074°01'2 3.7
2017-Nov-10 00:00N 40°44' W 074°01'0 0.0
2017-Nov-09 23:30N 40°44' W 074°01'0 0.0
2017-Nov-09 23:00N 40°44' W 074°01'0 0.0
2017-Nov-09 22:30N 40°44' W 074°01'0 0.0
2017-Nov-09 22:00N 40°44' W 074°01'0 0.0
2017-Nov-09 21:30N 40°44' W 074°01'0 0.0
2017-Nov-09 21:00N 40°44' W 074°01'0 0.0
2017-Nov-09 20:30N 40°44' W 074°01'0 0.0
2017-Nov-09 20:00N 40°44' W 074°01'0 0.0
2017-Nov-09 19:30N 40°44' W 074°01'0 0.0
2017-Nov-09 19:00N 40°44' W 074°01'0 0.0
2017-Nov-09 18:30N 40°44' W 074°01'0 0.0
2017-Nov-09 18:00N 40°44' W 074°01'0 0.0
2017-Nov-09 17:30N 40°44' W 074°01'0 0.0
2017-Nov-09 17:00N 40°44' W 074°01'0 0.0
2017-Nov-09 16:30N 40°44' W 074°01'0 0.0
2017-Nov-09 16:00N 40°44' W 074°01'0 0.0
2017-Nov-09 15:30N 40°44' W 074°01'0 0.0
2017-Nov-09 15:00N 40°44' W 074°01'0 0.0
2017-Nov-09 14:30N 40°44' W 074°01'0 0.0
2017-Nov-09 14:00N 40°44' W 074°01'0 0.0
2017-Nov-09 13:30N 40°44' W 074°01'0 0.0
2017-Nov-09 13:00N 40°44' W 074°01'0 0.0
2017-Nov-09 12:30N 40°44' W 074°01'0 0.0
2017-Nov-09 12:00N 40°44' W 074°01'0 0.0
2017-Nov-09 11:30N 40°44' W 074°01'0 0.0
2017-Nov-09 11:00N 40°44' W 074°01'0 0.0
2017-Nov-09 10:30N 40°44' W 074°01'0 0.0
2017-Nov-09 10:00N 40°44' W 074°01'0 0.0
2017-Nov-09 09:30N 40°44' W 074°01'0 0.0
2017-Nov-09 09:00N 40°44' W 074°01'0 0.0
2017-Nov-09 08:30N 40°44' W 074°01'0 0.0
2017-Nov-09 08:00N 40°44' W 074°01'0 0.0
2017-Nov-09 07:30N 40°44' W 074°01'0 0.0
2017-Nov-09 07:00N 40°44' W 074°01'0 0.0
2017-Nov-09 06:30N 40°44' W 074°01'0 0.0
2017-Nov-09 06:00N 40°44' W 074°01'0 0.0
2017-Nov-09 05:30N 40°44' W 074°01'0 0.0
2017-Nov-09 05:00N 40°44' W 074°01'0 0.0
2017-Nov-09 04:29N 40°44' W 074°01'0 0.0
2017-Nov-09 04:00N 40°44' W 074°01'0 0.0
2017-Nov-09 03:30N 40°44' W 074°01'  
Track history (hours):
 
Tides and Currents Weather Stations Pressure Air Temp Water Temp Dewpoint Dewpoint Depression Visibility Wind Speed Wind Dir Waves Ship Positions

Hornblower Esprit

Owner: Hornblower Cruises, New York, LLC., New York, NY. More information available from US FCC via Universal Licensing System and Coast Guard Vessel Documentation Center.

Last reported at 2017-Nov-19 03:15 UTC. Time now 2017-Nov-19 06:33 UTC.
Position N 40°44' W 074°01'.

Length 23 m.

MMSI: 367662670.

Date/timePositionNaut miles runAvg speedWind from/ knotsBaromVisibWave heightAir tempDewpointWater temp
2017-Nov-19 03:15N 40°44' W 074°01'0 0.0
2017-Nov-19 03:00N 40°44' W 074°01'1 1.5
2017-Nov-19 02:30N 40°43' W 074°02'2 4.4
2017-Nov-19 02:00N 40°41' W 074°02'1 2.3
2017-Nov-19 01:30N 40°42' W 074°01'2 4.2
2017-Nov-19 01:00N 40°43' W 073°59'2 4.1
2017-Nov-19 00:30N 40°42' W 074°01'2 3.3
2017-Nov-19 00:00N 40°44' W 074°01'0 0.0
2017-Nov-18 23:30N 40°44' W 074°01'0 0.0
2017-Nov-18 23:00N 40°44' W 074°01'0 0.0
2017-Nov-18 22:30N 40°44' W 074°01'0 0.0
2017-Nov-18 22:00N 40°44' W 074°01'0 0.0
2017-Nov-18 21:30N 40°44' W 074°01'0 0.0
2017-Nov-18 21:00N 40°44' W 074°01'0 0.0
2017-Nov-18 20:30N 40°44' W 074°01'0 0.0
2017-Nov-18 20:00N 40°44' W 074°01'2 3.6
2017-Nov-18 19:30N 40°42' W 074°00'0 0.6
2017-Nov-18 19:00N 40°42' W 074°00'0 0.0
2017-Nov-17 20:28N 40°42' W 074°00'1 2.0
2017-Nov-17 20:00N 40°43' W 074°01'1 0.1
2017-Nov-17 02:44N 40°44' W 074°01'0 0.8
2017-Nov-17 02:30N 40°44' W 074°01'2 4.1
2017-Nov-17 02:00N 40°42' W 074°02'0 0.6
2017-Nov-17 01:30N 40°42' W 074°01'3 5.5
2017-Nov-17 01:00N 40°43' W 073°58'3 5.4
2017-Nov-17 00:30N 40°42' W 074°01'2 3.7
2017-Nov-17 00:00N 40°44' W 074°01'0 0.0
2017-Nov-16 19:29N 40°44' W 074°01'0 0.0
2017-Nov-16 16:55N 40°44' W 074°01'2 4.3
2017-Nov-16 16:30N 40°42' W 074°01'1 0.0
2017-Nov-15 02:56N 40°42' W 074°00'0 0.4
2017-Nov-15 02:30N 40°42' W 074°00'2 3.9
2017-Nov-15 02:00N 40°41' W 074°02'3 5.1
2017-Nov-15 01:30N 40°44' W 074°01'3 5.9
2017-Nov-15 01:00N 40°47' W 074°00'2 3.9
2017-Nov-15 00:30N 40°45' W 074°01'3 5.4
2017-Nov-15 00:00N 40°42' W 074°01'0 0.8
2017-Nov-14 23:30N 40°42' W 074°00'0 0.0
2017-Nov-14 23:00N 40°42' W 074°00'0 0.2
2017-Nov-14 22:30N 40°42' W 074°00'2 3.3
2017-Nov-14 22:00N 40°44' W 074°01'0 0.0
2017-Nov-14 16:08N 40°44' W 074°01'0 0.0
2017-Nov-14 16:00N 40°44' W 074°01'2 3.6
2017-Nov-14 15:30N 40°43' W 074°02'0 0.0
2017-Nov-14 15:00N 40°43' W 074°02'0 0.8
2017-Nov-14 14:30N 40°43' W 074°03'0 0.0
2017-Nov-14 14:01N 40°43' W 074°03'0 0.0
2017-Nov-12 11:43N 40°43' W 074°03'0 0.1
2017-Nov-12 11:30N 40°43' W 074°03'1 2.8
2017-Nov-12 11:00N 40°44' W 074°01'1 0.1
2017-Nov-12 03:44N 40°44' W 074°01'0 0.0
2017-Nov-12 03:30N 40°44' W 074°01'0 0.0
2017-Nov-12 03:00N 40°44' W 074°01'2 3.5
2017-Nov-12 02:30N 40°42' W 074°02'1 1.7
2017-Nov-12 02:00N 40°41' W 074°02'2 4.3
2017-Nov-12 01:30N 40°42' W 073°60'2 4.1
2017-Nov-12 01:00N 40°44' W 074°01'1 2.2
2017-Nov-12 00:30N 40°45' W 074°01'1 2.8
2017-Nov-12 00:00N 40°44' W 074°01'0 0.0
2017-Nov-11 23:30N 40°44' W 074°01'0 0.0
2017-Nov-11 23:00N 40°44' W 074°01'0 0.0
2017-Nov-11 22:30N 40°44' W 074°01'0 0.0
2017-Nov-11 22:00N 40°44' W 074°01'0 0.0
2017-Nov-11 21:30N 40°44' W 074°01'0 0.0
2017-Nov-11 21:00N 40°44' W 074°01'0 0.0
2017-Nov-11 20:30N 40°44' W 074°01'0 0.0
2017-Nov-11 20:00N 40°44' W 074°01'0 0.0
2017-Nov-11 19:30N 40°44' W 074°01'0 0.0
2017-Nov-11 19:00N 40°44' W 074°01'0 0.0
2017-Nov-11 03:05N 40°44' W 074°01'0 0.1
2017-Nov-11 03:00N 40°44' W 074°01'2 3.5
2017-Nov-11 02:30N 40°42' W 074°02'1 2.6
2017-Nov-11 02:00N 40°41' W 074°02'3 6.1
2017-Nov-11 01:30N 40°43' W 073°59'1 2.5
2017-Nov-11 01:00N 40°42' W 074°00'3 5.8
2017-Nov-11 00:30N 40°45' W 074°01'1 1.9
2017-Nov-10 23:59N 40°44' W 074°01'0 0.0
2017-Nov-10 23:30N 40°44' W 074°01'0 0.0
2017-Nov-10 23:00N 40°44' W 074°01'0 0.0
2017-Nov-10 22:00N 40°44' W 074°01'0 0.0
2017-Nov-10 21:30N 40°44' W 074°01'0 0.0
2017-Nov-10 02:47N 40°44' W 074°01'1 3.5
2017-Nov-10 02:30N 40°43' W 074°01'2 3.8
2017-Nov-10 02:00N 40°41' W 074°02'3 5.4
2017-Nov-10 01:30N 40°42' W 073°59'1 1.3
2017-Nov-10 01:00N 40°43' W 073°58'2 3.5
2017-Nov-10 00:30N 40°42' W 074°01'2 3.7
2017-Nov-10 00:00N 40°44' W 074°01'0 0.0
2017-Nov-09 23:30N 40°44' W 074°01'0 0.0
2017-Nov-09 23:00N 40°44' W 074°01'0 0.0
2017-Nov-09 22:30N 40°44' W 074°01'0 0.0
2017-Nov-09 22:00N 40°44' W 074°01'0 0.0
2017-Nov-09 21:30N 40°44' W 074°01'0 0.0
2017-Nov-09 21:00N 40°44' W 074°01'0 0.0
2017-Nov-09 20:30N 40°44' W 074°01'0 0.0
2017-Nov-09 20:00N 40°44' W 074°01'0 0.0
2017-Nov-09 19:30N 40°44' W 074°01'0 0.0
2017-Nov-09 19:00N 40°44' W 074°01'0 0.0
2017-Nov-09 18:30N 40°44' W 074°01'0 0.0
2017-Nov-09 18:00N 40°44' W 074°01'0 0.0
2017-Nov-09 17:30N 40°44' W 074°01'0 0.0
2017-Nov-09 17:00N 40°44' W 074°01'0 0.0
2017-Nov-09 16:30N 40°44' W 074°01'0 0.0
2017-Nov-09 16:00N 40°44' W 074°01'0 0.0
2017-Nov-09 15:30N 40°44' W 074°01'0 0.0
2017-Nov-09 15:00N 40°44' W 074°01'0 0.0
2017-Nov-09 14:30N 40°44' W 074°01'0 0.0
2017-Nov-09 14:00N 40°44' W 074°01'0 0.0
2017-Nov-09 13:30N 40°44' W 074°01'0 0.0
2017-Nov-09 13:00N 40°44' W 074°01'0 0.0
2017-Nov-09 12:30N 40°44' W 074°01'0 0.0
2017-Nov-09 12:00N 40°44' W 074°01'0 0.0
2017-Nov-09 11:30N 40°44' W 074°01'0 0.0
2017-Nov-09 11:00N 40°44' W 074°01'0 0.0
2017-Nov-09 10:30N 40°44' W 074°01'0 0.0
2017-Nov-09 10:00N 40°44' W 074°01'0 0.0
2017-Nov-09 09:30N 40°44' W 074°01'0 0.0
2017-Nov-09 09:00N 40°44' W 074°01'0 0.0
2017-Nov-09 08:30N 40°44' W 074°01'0 0.0
2017-Nov-09 08:00N 40°44' W 074°01'0 0.0
2017-Nov-09 07:30N 40°44' W 074°01'0 0.0
2017-Nov-09 07:00N 40°44' W 074°01'0 0.0
2017-Nov-09 06:30N 40°44' W 074°01'0 0.0
2017-Nov-09 06:00N 40°44' W 074°01'0 0.0
2017-Nov-09 05:30N 40°44' W 074°01'0 0.0
2017-Nov-09 05:00N 40°44' W 074°01'0 0.0
2017-Nov-09 04:29N 40°44' W 074°01'0 0.0
2017-Nov-09 04:00N 40°44' W 074°01'0 0.0
2017-Nov-09 03:30N 40°44' W 074°01'  

Dump ship's entire track history